sensor_id;sensor_type;location;lat;lon;timestamp;P1;durP1;ratioP1;P2;durP2;ratioP2
43086;SDS011;28708;52.224;6.924;2024-01-10T00:01:23;1.63;;;1.20;;
43086;SDS011;28708;52.224;6.924;2024-01-10T00:03:52;5.50;;;1.13;;
43086;SDS011;28708;52.224;6.924;2024-01-10T00:06:20;5.50;;;1.67;;
43086;SDS011;28708;52.224;6.924;2024-01-10T00:08:46;2.33;;;1.17;;
43086;SDS011;28708;52.224;6.924;2024-01-10T00:11:12;2.33;;;1.13;;
43086;SDS011;28708;52.224;6.924;2024-01-10T00:13:38;2.33;;;1.13;;
43086;SDS011;28708;52.224;6.924;2024-01-10T00:16:03;3.57;;;1.73;;
43086;SDS011;28708;52.224;6.924;2024-01-10T00:18:30;2.30;;;1.00;;
43086;SDS011;28708;52.224;6.924;2024-01-10T00:20:55;2.10;;;1.20;;
43086;SDS011;28708;52.224;6.924;2024-01-10T00:23:21;4.07;;;1.30;;
43086;SDS011;28708;52.224;6.924;2024-01-10T00:25:47;4.20;;;1.87;;
43086;SDS011;28708;52.224;6.924;2024-01-10T00:28:13;3.40;;;1.35;;
43086;SDS011;28708;52.224;6.924;2024-01-10T00:30:41;2.67;;;1.20;;
43086;SDS011;28708;52.224;6.924;2024-01-10T00:33:07;2.67;;;1.37;;
43086;SDS011;28708;52.224;6.924;2024-01-10T00:35:33;4.33;;;1.43;;
43086;SDS011;28708;52.224;6.924;2024-01-10T00:37:58;2.57;;;1.10;;
43086;SDS011;28708;52.224;6.924;2024-01-10T00:40:24;3.03;;;1.33;;
43086;SDS011;28708;52.224;6.924;2024-01-10T00:42:50;4.17;;;1.33;;
43086;SDS011;28708;52.224;6.924;2024-01-10T00:45:16;4.33;;;1.67;;
43086;SDS011;28708;52.224;6.924;2024-01-10T00:47:42;3.70;;;1.52;;
43086;SDS011;28708;52.224;6.924;2024-01-10T00:50:08;10.17;;;1.30;;
43086;SDS011;28708;52.224;6.924;2024-01-10T00:52:33;4.40;;;1.60;;
43086;SDS011;28708;52.224;6.924;2024-01-10T00:54:59;4.20;;;1.87;;
43086;SDS011;28708;52.224;6.924;2024-01-10T00:57:25;3.70;;;1.50;;
43086;SDS011;28708;52.224;6.924;2024-01-10T00:59:50;4.33;;;1.40;;
43086;SDS011;28708;52.224;6.924;2024-01-10T01:02:16;6.77;;;1.73;;
43086;SDS011;28708;52.224;6.924;2024-01-10T01:04:41;6.20;;;1.97;;
43086;SDS011;28708;52.224;6.924;2024-01-10T01:07:07;4.63;;;1.30;;
43086;SDS011;28708;52.224;6.924;2024-01-10T01:09:33;4.23;;;1.10;;
43086;SDS011;28708;52.224;6.924;2024-01-10T01:11:59;4.20;;;1.70;;
43086;SDS011;28708;52.224;6.924;2024-01-10T01:14:25;2.03;;;1.20;;
43086;SDS011;28708;52.224;6.924;2024-01-10T01:16:51;2.97;;;0.77;;
43086;SDS011;28708;52.224;6.924;2024-01-10T01:19:17;5.10;;;1.57;;
43086;SDS011;28708;52.224;6.924;2024-01-10T01:21:42;4.30;;;1.40;;
43086;SDS011;28708;52.224;6.924;2024-01-10T01:24:08;3.47;;;1.27;;
43086;SDS011;28708;52.224;6.924;2024-01-10T01:26:34;4.80;;;1.50;;
43086;SDS011;28708;52.224;6.924;2024-01-10T01:28:59;2.87;;;1.50;;
43086;SDS011;28708;52.224;6.924;2024-01-10T01:31:25;3.33;;;1.20;;
43086;SDS011;28708;52.224;6.924;2024-01-10T01:33:51;2.57;;;1.33;;
43086;SDS011;28708;52.224;6.924;2024-01-10T01:36:16;3.17;;;1.60;;
43086;SDS011;28708;52.224;6.924;2024-01-10T01:38:42;5.07;;;1.60;;
43086;SDS011;28708;52.224;6.924;2024-01-10T01:41:08;3.43;;;1.60;;
43086;SDS011;28708;52.224;6.924;2024-01-10T01:43:33;1.87;;;1.10;;
43086;SDS011;28708;52.224;6.924;2024-01-10T01:46:00;5.70;;;2.20;;
43086;SDS011;28708;52.224;6.924;2024-01-10T01:48:26;2.78;;;1.45;;
43086;SDS011;28708;52.224;6.924;2024-01-10T01:50:53;5.60;;;1.60;;
43086;SDS011;28708;52.224;6.924;2024-01-10T01:53:22;7.18;;;1.70;;
43086;SDS011;28708;52.224;6.924;2024-01-10T01:55:48;4.22;;;1.40;;
43086;SDS011;28708;52.224;6.924;2024-01-10T01:58:14;3.37;;;1.73;;
43086;SDS011;28708;52.224;6.924;2024-01-10T02:00:40;1.65;;;0.90;;
43086;SDS011;28708;52.224;6.924;2024-01-10T02:03:07;1.73;;;1.05;;
43086;SDS011;28708;52.224;6.924;2024-01-10T02:05:34;3.90;;;1.02;;
43086;SDS011;28708;52.224;6.924;2024-01-10T02:08:00;2.30;;;1.20;;
43086;SDS011;28708;52.224;6.924;2024-01-10T02:10:25;3.83;;;1.40;;
43086;SDS011;28708;52.224;6.924;2024-01-10T02:12:51;3.07;;;1.27;;
43086;SDS011;28708;52.224;6.924;2024-01-10T02:15:17;4.87;;;1.43;;
43086;SDS011;28708;52.224;6.924;2024-01-10T02:17:43;4.43;;;1.67;;
43086;SDS011;28708;52.224;6.924;2024-01-10T02:22:34;3.50;;;1.43;;
43086;SDS011;28708;52.224;6.924;2024-01-10T02:25:00;3.87;;;1.27;;
43086;SDS011;28708;52.224;6.924;2024-01-10T02:27:25;2.67;;;1.30;;
43086;SDS011;28708;52.224;6.924;2024-01-10T02:29:52;4.40;;;1.60;;
43086;SDS011;28708;52.224;6.924;2024-01-10T02:32:19;4.63;;;1.85;;
43086;SDS011;28708;52.224;6.924;2024-01-10T02:34:45;2.80;;;1.40;;
43086;SDS011;28708;52.224;6.924;2024-01-10T02:37:10;4.13;;;1.40;;
43086;SDS011;28708;52.224;6.924;2024-01-10T02:39:36;4.13;;;1.70;;
43086;SDS011;28708;52.224;6.924;2024-01-10T02:42:01;3.30;;;1.30;;
43086;SDS011;28708;52.224;6.924;2024-01-10T02:44:27;3.13;;;1.83;;
43086;SDS011;28708;52.224;6.924;2024-01-10T02:46:53;2.50;;;1.40;;
43086;SDS011;28708;52.224;6.924;2024-01-10T02:49:18;3.63;;;1.40;;
43086;SDS011;28708;52.224;6.924;2024-01-10T02:51:44;3.00;;;1.60;;
43086;SDS011;28708;52.224;6.924;2024-01-10T02:54:10;3.22;;;1.40;;
43086;SDS011;28708;52.224;6.924;2024-01-10T02:56:36;6.03;;;1.27;;
43086;SDS011;28708;52.224;6.924;2024-01-10T02:59:01;6.70;;;1.50;;
43086;SDS011;28708;52.224;6.924;2024-01-10T03:01:27;4.63;;;1.60;;
43086;SDS011;28708;52.224;6.924;2024-01-10T03:03:53;4.17;;;1.53;;
43086;SDS011;28708;52.224;6.924;2024-01-10T03:06:19;2.33;;;1.23;;
43086;SDS011;28708;52.224;6.924;2024-01-10T03:08:44;3.87;;;1.33;;
43086;SDS011;28708;52.224;6.924;2024-01-10T03:11:10;6.33;;;1.50;;
43086;SDS011;28708;52.224;6.924;2024-01-10T03:13:35;3.27;;;1.60;;
43086;SDS011;28708;52.224;6.924;2024-01-10T03:16:02;4.18;;;1.58;;
43086;SDS011;28708;52.224;6.924;2024-01-10T03:18:28;2.87;;;1.43;;
43086;SDS011;28708;52.224;6.924;2024-01-10T03:20:54;2.67;;;1.33;;
43086;SDS011;28708;52.224;6.924;2024-01-10T03:23:20;3.88;;;1.58;;
43086;SDS011;28708;52.224;6.924;2024-01-10T03:25:47;4.95;;;1.88;;
43086;SDS011;28708;52.224;6.924;2024-01-10T03:28:16;4.47;;;1.70;;
43086;SDS011;28708;52.224;6.924;2024-01-10T03:30:42;6.22;;;1.35;;
43086;SDS011;28708;52.224;6.924;2024-01-10T03:33:08;5.83;;;1.40;;
43086;SDS011;28708;52.224;6.924;2024-01-10T03:35:34;4.77;;;1.37;;
43086;SDS011;28708;52.224;6.924;2024-01-10T03:37:59;2.37;;;1.70;;
43086;SDS011;28708;52.224;6.924;2024-01-10T03:40:25;4.77;;;1.43;;
43086;SDS011;28708;52.224;6.924;2024-01-10T03:42:51;2.77;;;1.47;;
43086;SDS011;28708;52.224;6.924;2024-01-10T03:45:17;5.53;;;1.60;;
43086;SDS011;28708;52.224;6.924;2024-01-10T03:47:46;2.30;;;1.55;;
43086;SDS011;28708;52.224;6.924;2024-01-10T03:50:15;2.45;;;1.55;;
43086;SDS011;28708;52.224;6.924;2024-01-10T03:52:42;5.68;;;1.90;;
43086;SDS011;28708;52.224;6.924;2024-01-10T03:55:08;7.20;;;2.25;;
43086;SDS011;28708;52.224;6.924;2024-01-10T03:57:34;5.70;;;1.73;;
43086;SDS011;28708;52.224;6.924;2024-01-10T04:00:00;5.77;;;1.83;;
43086;SDS011;28708;52.224;6.924;2024-01-10T04:02:26;4.17;;;1.60;;
43086;SDS011;28708;52.224;6.924;2024-01-10T04:04:53;3.83;;;1.83;;
43086;SDS011;28708;52.224;6.924;2024-01-10T04:07:18;2.03;;;1.30;;
43086;SDS011;28708;52.224;6.924;2024-01-10T04:09:44;5.07;;;2.33;;
43086;SDS011;28708;52.224;6.924;2024-01-10T04:12:10;4.83;;;1.87;;
43086;SDS011;28708;52.224;6.924;2024-01-10T04:14:36;7.83;;;2.03;;
43086;SDS011;28708;52.224;6.924;2024-01-10T04:17:01;4.50;;;1.67;;
43086;SDS011;28708;52.224;6.924;2024-01-10T04:19:29;3.30;;;1.77;;
43086;SDS011;28708;52.224;6.924;2024-01-10T04:21:55;3.43;;;1.53;;
43086;SDS011;28708;52.224;6.924;2024-01-10T04:24:21;4.17;;;1.70;;
43086;SDS011;28708;52.224;6.924;2024-01-10T04:26:46;7.37;;;1.87;;
43086;SDS011;28708;52.224;6.924;2024-01-10T04:29:12;5.70;;;1.87;;
43086;SDS011;28708;52.224;6.924;2024-01-10T04:31:37;3.23;;;1.40;;
43086;SDS011;28708;52.224;6.924;2024-01-10T04:34:03;5.97;;;2.10;;
43086;SDS011;28708;52.224;6.924;2024-01-10T04:36:29;5.00;;;2.33;;
43086;SDS011;28708;52.224;6.924;2024-01-10T04:38:54;5.30;;;1.80;;
43086;SDS011;28708;52.224;6.924;2024-01-10T04:41:20;7.93;;;2.50;;
43086;SDS011;28708;52.224;6.924;2024-01-10T04:43:46;5.97;;;1.80;;
43086;SDS011;28708;52.224;6.924;2024-01-10T04:46:11;4.37;;;1.50;;
43086;SDS011;28708;52.224;6.924;2024-01-10T04:48:37;6.77;;;2.37;;
43086;SDS011;28708;52.224;6.924;2024-01-10T04:51:03;6.23;;;2.47;;
43086;SDS011;28708;52.224;6.924;2024-01-10T04:53:28;8.90;;;2.47;;
43086;SDS011;28708;52.224;6.924;2024-01-10T04:55:54;6.70;;;2.77;;
43086;SDS011;28708;52.224;6.924;2024-01-10T04:58:19;7.47;;;2.80;;
43086;SDS011;28708;52.224;6.924;2024-01-10T05:00:45;3.67;;;1.67;;
43086;SDS011;28708;52.224;6.924;2024-01-10T05:03:11;6.93;;;2.53;;
43086;SDS011;28708;52.224;6.924;2024-01-10T05:05:37;7.13;;;2.20;;
43086;SDS011;28708;52.224;6.924;2024-01-10T05:08:02;5.03;;;2.07;;
43086;SDS011;28708;52.224;6.924;2024-01-10T05:10:28;15.47;;;2.63;;
43086;SDS011;28708;52.224;6.924;2024-01-10T05:12:54;8.77;;;2.10;;
43086;SDS011;28708;52.224;6.924;2024-01-10T05:15:19;5.70;;;2.27;;
43086;SDS011;28708;52.224;6.924;2024-01-10T05:17:45;4.63;;;2.40;;
43086;SDS011;28708;52.224;6.924;2024-01-10T05:20:10;8.00;;;2.30;;
43086;SDS011;28708;52.224;6.924;2024-01-10T05:22:36;6.40;;;3.00;;
43086;SDS011;28708;52.224;6.924;2024-01-10T05:25:02;10.63;;;2.30;;
43086;SDS011;28708;52.224;6.924;2024-01-10T05:27:29;7.90;;;2.95;;
43086;SDS011;28708;52.224;6.924;2024-01-10T05:29:55;3.27;;;1.53;;
43086;SDS011;28708;52.224;6.924;2024-01-10T05:32:20;4.30;;;2.27;;
43086;SDS011;28708;52.224;6.924;2024-01-10T05:34:46;6.27;;;2.67;;
43086;SDS011;28708;52.224;6.924;2024-01-10T05:37:13;4.72;;;1.45;;
43086;SDS011;28708;52.224;6.924;2024-01-10T05:39:38;5.60;;;2.07;;
43086;SDS011;28708;52.224;6.924;2024-01-10T05:42:04;7.13;;;2.50;;
43086;SDS011;28708;52.224;6.924;2024-01-10T05:44:30;8.90;;;2.50;;
43086;SDS011;28708;52.224;6.924;2024-01-10T05:46:55;6.30;;;2.50;;
43086;SDS011;28708;52.224;6.924;2024-01-10T05:49:24;9.15;;;3.13;;
43086;SDS011;28708;52.224;6.924;2024-01-10T05:51:53;11.02;;;3.40;;
43086;SDS011;28708;52.224;6.924;2024-01-10T05:54:19;6.83;;;2.63;;
43086;SDS011;28708;52.224;6.924;2024-01-10T05:56:44;9.67;;;2.43;;
43086;SDS011;28708;52.224;6.924;2024-01-10T05:59:10;7.13;;;2.43;;
43086;SDS011;28708;52.224;6.924;2024-01-10T06:01:41;9.25;;;2.58;;
43086;SDS011;28708;52.224;6.924;2024-01-10T06:04:06;5.37;;;2.00;;
43086;SDS011;28708;52.224;6.924;2024-01-10T06:06:32;5.67;;;3.00;;
43086;SDS011;28708;52.224;6.924;2024-01-10T06:08:58;6.80;;;3.00;;
43086;SDS011;28708;52.224;6.924;2024-01-10T06:11:23;7.60;;;3.40;;
43086;SDS011;28708;52.224;6.924;2024-01-10T06:13:49;10.40;;;3.57;;
43086;SDS011;28708;52.224;6.924;2024-01-10T06:16:15;6.77;;;2.80;;
43086;SDS011;28708;52.224;6.924;2024-01-10T06:18:41;6.43;;;3.08;;
43086;SDS011;28708;52.224;6.924;2024-01-10T06:21:07;7.90;;;2.93;;
43086;SDS011;28708;52.224;6.924;2024-01-10T06:23:33;10.15;;;2.63;;
43086;SDS011;28708;52.224;6.924;2024-01-10T06:25:58;7.60;;;3.60;;
43086;SDS011;28708;52.224;6.924;2024-01-10T06:28:24;9.03;;;2.97;;
43086;SDS011;28708;52.224;6.924;2024-01-10T06:30:50;10.23;;;2.67;;
43086;SDS011;28708;52.224;6.924;2024-01-10T06:33:15;8.37;;;3.27;;
43086;SDS011;28708;52.224;6.924;2024-01-10T06:35:41;9.33;;;2.80;;
43086;SDS011;28708;52.224;6.924;2024-01-10T06:38:10;11.13;;;3.20;;
43086;SDS011;28708;52.224;6.924;2024-01-10T06:40:36;8.70;;;3.33;;
43086;SDS011;28708;52.224;6.924;2024-01-10T06:43:02;8.80;;;3.20;;
43086;SDS011;28708;52.224;6.924;2024-01-10T06:45:33;11.60;;;3.33;;
43086;SDS011;28708;52.224;6.924;2024-01-10T06:47:59;8.55;;;3.17;;
43086;SDS011;28708;52.224;6.924;2024-01-10T06:50:25;7.33;;;2.93;;
43086;SDS011;28708;52.224;6.924;2024-01-10T06:52:50;10.67;;;2.73;;
43086;SDS011;28708;52.224;6.924;2024-01-10T06:55:16;6.53;;;3.30;;
43086;SDS011;28708;52.224;6.924;2024-01-10T06:57:43;7.25;;;2.95;;
43086;SDS011;28708;52.224;6.924;2024-01-10T07:00:09;6.10;;;2.73;;
43086;SDS011;28708;52.224;6.924;2024-01-10T07:02:38;7.38;;;2.60;;
43086;SDS011;28708;52.224;6.924;2024-01-10T07:05:08;6.10;;;2.83;;
43086;SDS011;28708;52.224;6.924;2024-01-10T07:07:34;10.15;;;3.28;;
43086;SDS011;28708;52.224;6.924;2024-01-10T07:10:00;5.80;;;2.77;;
43086;SDS011;28708;52.224;6.924;2024-01-10T07:12:30;6.75;;;3.13;;
43086;SDS011;28708;52.224;6.924;2024-01-10T07:14:56;8.68;;;3.40;;
43086;SDS011;28708;52.224;6.924;2024-01-10T07:17:22;6.70;;;3.13;;
43086;SDS011;28708;52.224;6.924;2024-01-10T07:19:48;7.03;;;3.03;;
43086;SDS011;28708;52.224;6.924;2024-01-10T07:22:14;7.47;;;2.90;;
43086;SDS011;28708;52.224;6.924;2024-01-10T07:24:39;5.87;;;2.63;;
43086;SDS011;28708;52.224;6.924;2024-01-10T07:27:05;12.03;;;3.53;;
43086;SDS011;28708;52.224;6.924;2024-01-10T07:29:32;6.40;;;3.22;;
43086;SDS011;28708;52.224;6.924;2024-01-10T07:31:59;9.50;;;3.42;;
43086;SDS011;28708;52.224;6.924;2024-01-10T07:34:24;6.50;;;3.10;;
43086;SDS011;28708;52.224;6.924;2024-01-10T07:36:50;6.87;;;3.13;;
43086;SDS011;28708;52.224;6.924;2024-01-10T07:39:16;6.00;;;2.83;;
43086;SDS011;28708;52.224;6.924;2024-01-10T07:41:44;9.27;;;3.00;;
43086;SDS011;28708;52.224;6.924;2024-01-10T07:44:09;9.75;;;3.00;;
43086;SDS011;28708;52.224;6.924;2024-01-10T07:46:35;5.90;;;2.80;;
43086;SDS011;28708;52.224;6.924;2024-01-10T07:49:06;8.80;;;2.83;;
43086;SDS011;28708;52.224;6.924;2024-01-10T07:51:32;8.05;;;2.90;;
43086;SDS011;28708;52.224;6.924;2024-01-10T07:54:00;8.65;;;3.00;;
43086;SDS011;28708;52.224;6.924;2024-01-10T07:56:26;6.83;;;2.60;;
43086;SDS011;28708;52.224;6.924;2024-01-10T07:58:52;8.83;;;2.80;;
43086;SDS011;28708;52.224;6.924;2024-01-10T08:01:17;9.53;;;3.73;;
43086;SDS011;28708;52.224;6.924;2024-01-10T08:03:43;7.47;;;3.13;;
43086;SDS011;28708;52.224;6.924;2024-01-10T08:06:09;6.83;;;2.93;;
43086;SDS011;28708;52.224;6.924;2024-01-10T08:08:37;10.05;;;3.30;;
43086;SDS011;28708;52.224;6.924;2024-01-10T08:11:03;6.07;;;2.43;;
43086;SDS011;28708;52.224;6.924;2024-01-10T08:13:28;8.93;;;3.33;;
43086;SDS011;28708;52.224;6.924;2024-01-10T08:15:54;11.83;;;2.90;;
43086;SDS011;28708;52.224;6.924;2024-01-10T08:18:20;7.97;;;2.77;;
43086;SDS011;28708;52.224;6.924;2024-01-10T08:20:45;7.07;;;3.23;;
43086;SDS011;28708;52.224;6.924;2024-01-10T08:23:11;8.33;;;3.43;;
43086;SDS011;28708;52.224;6.924;2024-01-10T08:25:37;7.80;;;3.40;;
43086;SDS011;28708;52.224;6.924;2024-01-10T08:28:03;11.15;;;2.70;;
43086;SDS011;28708;52.224;6.924;2024-01-10T08:30:29;5.77;;;2.17;;
43086;SDS011;28708;52.224;6.924;2024-01-10T08:32:54;12.13;;;4.10;;
43086;SDS011;28708;52.224;6.924;2024-01-10T08:35:20;10.63;;;3.03;;
43086;SDS011;28708;52.224;6.924;2024-01-10T08:37:46;12.13;;;3.27;;
43086;SDS011;28708;52.224;6.924;2024-01-10T08:40:12;8.73;;;2.97;;
43086;SDS011;28708;52.224;6.924;2024-01-10T08:42:40;11.05;;;3.22;;
43086;SDS011;28708;52.224;6.924;2024-01-10T08:45:07;8.45;;;2.63;;
43086;SDS011;28708;52.224;6.924;2024-01-10T08:47:34;6.55;;;2.45;;
43086;SDS011;28708;52.224;6.924;2024-01-10T08:50:03;9.45;;;3.85;;
43086;SDS011;28708;52.224;6.924;2024-01-10T08:52:33;10.23;;;3.13;;
43086;SDS011;28708;52.224;6.924;2024-01-10T08:55:00;4.93;;;2.65;;
43086;SDS011;28708;52.224;6.924;2024-01-10T08:57:26;10.57;;;3.50;;
43086;SDS011;28708;52.224;6.924;2024-01-10T08:59:52;6.50;;;2.55;;
43086;SDS011;28708;52.224;6.924;2024-01-10T09:02:18;9.67;;;3.43;;
43086;SDS011;28708;52.224;6.924;2024-01-10T09:04:44;7.83;;;2.80;;
43086;SDS011;28708;52.224;6.924;2024-01-10T09:07:10;8.93;;;2.80;;
43086;SDS011;28708;52.224;6.924;2024-01-10T09:09:35;7.30;;;3.63;;
43086;SDS011;28708;52.224;6.924;2024-01-10T09:12:01;9.53;;;2.60;;
43086;SDS011;28708;52.224;6.924;2024-01-10T09:14:28;10.97;;;3.13;;
43086;SDS011;28708;52.224;6.924;2024-01-10T09:16:53;7.57;;;3.70;;
43086;SDS011;28708;52.224;6.924;2024-01-10T09:19:19;10.07;;;4.13;;
43086;SDS011;28708;52.224;6.924;2024-01-10T09:21:45;6.37;;;2.70;;
43086;SDS011;28708;52.224;6.924;2024-01-10T09:24:11;10.17;;;3.23;;
43086;SDS011;28708;52.224;6.924;2024-01-10T09:26:39;15.17;;;3.90;;
43086;SDS011;28708;52.224;6.924;2024-01-10T09:29:06;11.93;;;3.97;;
43086;SDS011;28708;52.224;6.924;2024-01-10T09:31:31;9.23;;;2.90;;
43086;SDS011;28708;52.224;6.924;2024-01-10T09:33:57;10.60;;;2.80;;
43086;SDS011;28708;52.224;6.924;2024-01-10T09:36:23;7.13;;;3.07;;
43086;SDS011;28708;52.224;6.924;2024-01-10T09:38:48;10.77;;;3.60;;
43086;SDS011;28708;52.224;6.924;2024-01-10T09:41:14;6.30;;;2.80;;
43086;SDS011;28708;52.224;6.924;2024-01-10T09:43:40;11.03;;;2.97;;
43086;SDS011;28708;52.224;6.924;2024-01-10T09:46:06;8.30;;;3.13;;
43086;SDS011;28708;52.224;6.924;2024-01-10T09:48:32;9.10;;;3.53;;
43086;SDS011;28708;52.224;6.924;2024-01-10T09:50:58;8.03;;;3.57;;
43086;SDS011;28708;52.224;6.924;2024-01-10T09:53:25;9.27;;;2.67;;
43086;SDS011;28708;52.224;6.924;2024-01-10T09:55:57;8.87;;;3.20;;
43086;SDS011;28708;52.224;6.924;2024-01-10T09:58:25;9.27;;;3.77;;
43086;SDS011;28708;52.224;6.924;2024-01-10T10:00:51;10.17;;;3.30;;
43086;SDS011;28708;52.224;6.924;2024-01-10T10:03:17;7.27;;;3.07;;
43086;SDS011;28708;52.224;6.924;2024-01-10T10:05:44;7.63;;;2.77;;
43086;SDS011;28708;52.224;6.924;2024-01-10T10:08:10;8.13;;;2.97;;
43086;SDS011;28708;52.224;6.924;2024-01-10T10:10:40;7.40;;;3.25;;
43086;SDS011;28708;52.224;6.924;2024-01-10T10:13:10;7.32;;;3.13;;
43086;SDS011;28708;52.224;6.924;2024-01-10T10:15:56;8.30;;;3.37;;
43086;SDS011;28708;52.224;6.924;2024-01-10T10:18:26;10.13;;;3.17;;
43086;SDS011;28708;52.224;6.924;2024-01-10T10:21:06;6.30;;;2.60;;
43086;SDS011;28708;52.224;6.924;2024-01-10T10:23:32;7.50;;;2.77;;
43086;SDS011;28708;52.224;6.924;2024-01-10T10:25:58;6.50;;;3.57;;
43086;SDS011;28708;52.224;6.924;2024-01-10T10:28:28;7.30;;;3.80;;
43086;SDS011;28708;52.224;6.924;2024-01-10T10:30:56;5.83;;;2.37;;
43086;SDS011;28708;52.224;6.924;2024-01-10T10:33:22;8.10;;;2.87;;
43086;SDS011;28708;52.224;6.924;2024-01-10T10:35:49;7.33;;;2.83;;
43086;SDS011;28708;52.224;6.924;2024-01-10T10:38:15;7.27;;;2.97;;
43086;SDS011;28708;52.224;6.924;2024-01-10T10:40:41;8.30;;;3.33;;
43086;SDS011;28708;52.224;6.924;2024-01-10T10:43:06;5.23;;;2.70;;
43086;SDS011;28708;52.224;6.924;2024-01-10T10:45:39;8.73;;;2.83;;
43086;SDS011;28708;52.224;6.924;2024-01-10T10:48:08;9.90;;;3.63;;
43086;SDS011;28708;52.224;6.924;2024-01-10T10:50:38;9.65;;;3.47;;
43086;SDS011;28708;52.224;6.924;2024-01-10T10:53:03;8.63;;;3.27;;
43086;SDS011;28708;52.224;6.924;2024-01-10T10:55:29;6.23;;;2.73;;
43086;SDS011;28708;52.224;6.924;2024-01-10T10:57:56;7.23;;;3.00;;
43086;SDS011;28708;52.224;6.924;2024-01-10T11:00:23;10.37;;;3.60;;
43086;SDS011;28708;52.224;6.924;2024-01-10T11:02:55;10.57;;;3.80;;
43086;SDS011;28708;52.224;6.924;2024-01-10T11:05:21;9.00;;;3.10;;
43086;SDS011;28708;52.224;6.924;2024-01-10T11:07:49;7.27;;;2.90;;
43086;SDS011;28708;52.224;6.924;2024-01-10T11:10:27;6.27;;;2.30;;
43086;SDS011;28708;52.224;6.924;2024-01-10T11:18:40;9.80;;;3.67;;
43086;SDS011;28708;52.224;6.924;2024-01-10T11:24:29;7.77;;;2.63;;
43086;SDS011;28708;52.224;6.924;2024-01-10T11:27:11;6.47;;;2.83;;
43086;SDS011;28708;52.224;6.924;2024-01-10T11:29:38;7.57;;;2.83;;
43086;SDS011;28708;52.224;6.924;2024-01-10T11:32:06;7.13;;;2.77;;
43086;SDS011;28708;52.224;6.924;2024-01-10T11:34:35;9.85;;;3.47;;
43086;SDS011;28708;52.224;6.924;2024-01-10T11:37:10;6.80;;;2.97;;
43086;SDS011;28708;52.224;6.924;2024-01-10T11:39:41;7.90;;;3.10;;
43086;SDS011;28708;52.224;6.924;2024-01-10T11:42:10;9.50;;;3.60;;
43086;SDS011;28708;52.224;6.924;2024-01-10T11:44:49;5.93;;;2.93;;
43086;SDS011;28708;52.224;6.924;2024-01-10T11:47:15;8.48;;;2.95;;
43086;SDS011;28708;52.224;6.924;2024-01-10T11:49:53;7.60;;;3.47;;
43086;SDS011;28708;52.224;6.924;2024-01-10T11:52:21;5.50;;;2.70;;
43086;SDS011;28708;52.224;6.924;2024-01-10T11:54:48;5.17;;;2.33;;
43086;SDS011;28708;52.224;6.924;2024-01-10T11:59:42;6.07;;;2.73;;
43086;SDS011;28708;52.224;6.924;2024-01-10T12:02:10;5.03;;;2.43;;
43086;SDS011;28708;52.224;6.924;2024-01-10T12:04:37;7.23;;;3.10;;
43086;SDS011;28708;52.224;6.924;2024-01-10T12:07:03;5.37;;;2.60;;
43086;SDS011;28708;52.224;6.924;2024-01-10T12:09:32;6.53;;;2.63;;
43086;SDS011;28708;52.224;6.924;2024-01-10T12:11:58;5.73;;;2.50;;
43086;SDS011;28708;52.224;6.924;2024-01-10T12:14:24;10.50;;;2.93;;
43086;SDS011;28708;52.224;6.924;2024-01-10T12:16:51;6.50;;;2.97;;
43086;SDS011;28708;52.224;6.924;2024-01-10T12:19:20;10.93;;;3.33;;
43086;SDS011;28708;52.224;6.924;2024-01-10T12:21:45;8.30;;;3.00;;
43086;SDS011;28708;52.224;6.924;2024-01-10T12:24:12;8.67;;;2.93;;
43086;SDS011;28708;52.224;6.924;2024-01-10T12:26:45;6.37;;;3.30;;
43086;SDS011;28708;52.224;6.924;2024-01-10T12:29:11;7.93;;;3.10;;
43086;SDS011;28708;52.224;6.924;2024-01-10T12:31:37;5.80;;;2.50;;
43086;SDS011;28708;52.224;6.924;2024-01-10T12:34:07;5.47;;;2.67;;
43086;SDS011;28708;52.224;6.924;2024-01-10T12:36:34;7.00;;;3.00;;
43086;SDS011;28708;52.224;6.924;2024-01-10T12:39:00;14.83;;;2.93;;
43086;SDS011;28708;52.224;6.924;2024-01-10T12:41:26;5.50;;;2.43;;
43086;SDS011;28708;52.224;6.924;2024-01-10T12:43:53;8.77;;;2.70;;
43086;SDS011;28708;52.224;6.924;2024-01-10T12:46:22;5.70;;;2.40;;
43086;SDS011;28708;52.224;6.924;2024-01-10T12:49:01;7.27;;;2.30;;
43086;SDS011;28708;52.224;6.924;2024-01-10T12:51:30;9.40;;;3.10;;
43086;SDS011;28708;52.224;6.924;2024-01-10T12:53:57;7.50;;;2.63;;
43086;SDS011;28708;52.224;6.924;2024-01-10T12:56:24;8.93;;;2.87;;
43086;SDS011;28708;52.224;6.924;2024-01-10T12:58:50;8.60;;;3.10;;
43086;SDS011;28708;52.224;6.924;2024-01-10T13:01:16;6.33;;;2.97;;
43086;SDS011;28708;52.224;6.924;2024-01-10T13:03:42;8.13;;;2.87;;
43086;SDS011;28708;52.224;6.924;2024-01-10T13:06:08;8.37;;;2.90;;
43086;SDS011;28708;52.224;6.924;2024-01-10T13:08:35;6.07;;;2.67;;
43086;SDS011;28708;52.224;6.924;2024-01-10T13:11:01;7.70;;;3.07;;
43086;SDS011;28708;52.224;6.924;2024-01-10T13:13:29;7.53;;;3.60;;
43086;SDS011;28708;52.224;6.924;2024-01-10T13:15:55;5.33;;;2.67;;
43086;SDS011;28708;52.224;6.924;2024-01-10T13:18:20;6.63;;;2.83;;
43086;SDS011;28708;52.224;6.924;2024-01-10T13:20:46;9.43;;;3.03;;
43086;SDS011;28708;52.224;6.924;2024-01-10T13:23:12;8.63;;;3.47;;
43086;SDS011;28708;52.224;6.924;2024-01-10T13:25:40;7.83;;;3.07;;
43086;SDS011;28708;52.224;6.924;2024-01-10T13:28:06;7.33;;;2.80;;
43086;SDS011;28708;52.224;6.924;2024-01-10T13:30:32;5.47;;;2.43;;
43086;SDS011;28708;52.224;6.924;2024-01-10T13:32:58;7.30;;;2.97;;
43086;SDS011;28708;52.224;6.924;2024-01-10T13:35:24;14.10;;;2.73;;
43086;SDS011;28708;52.224;6.924;2024-01-10T13:37:49;6.63;;;2.53;;
43086;SDS011;28708;52.224;6.924;2024-01-10T13:40:15;8.20;;;2.70;;
43086;SDS011;28708;52.224;6.924;2024-01-10T13:42:44;11.03;;;3.10;;
43086;SDS011;28708;52.224;6.924;2024-01-10T13:45:10;9.60;;;3.80;;
43086;SDS011;28708;52.224;6.924;2024-01-10T13:47:36;8.03;;;3.37;;
43086;SDS011;28708;52.224;6.924;2024-01-10T13:50:03;8.83;;;3.30;;
43086;SDS011;28708;52.224;6.924;2024-01-10T13:52:31;10.00;;;3.43;;
43086;SDS011;28708;52.224;6.924;2024-01-10T13:54:57;6.57;;;2.83;;
43086;SDS011;28708;52.224;6.924;2024-01-10T13:57:23;10.23;;;3.97;;
43086;SDS011;28708;52.224;6.924;2024-01-10T13:59:48;9.73;;;2.90;;
43086;SDS011;28708;52.224;6.924;2024-01-10T14:02:14;6.30;;;2.33;;
43086;SDS011;28708;52.224;6.924;2024-01-10T14:04:41;7.13;;;2.47;;
43086;SDS011;28708;52.224;6.924;2024-01-10T14:07:06;9.27;;;3.03;;
43086;SDS011;28708;52.224;6.924;2024-01-10T14:09:32;7.87;;;2.87;;
43086;SDS011;28708;52.224;6.924;2024-01-10T14:11:58;11.23;;;3.90;;
43086;SDS011;28708;52.224;6.924;2024-01-10T14:14:24;6.53;;;3.20;;
43086;SDS011;28708;52.224;6.924;2024-01-10T14:16:49;6.03;;;2.37;;
43086;SDS011;28708;52.224;6.924;2024-01-10T14:19:15;10.00;;;3.63;;
43086;SDS011;28708;52.224;6.924;2024-01-10T14:21:42;8.50;;;3.23;;
43086;SDS011;28708;52.224;6.924;2024-01-10T14:24:08;6.37;;;2.97;;
43086;SDS011;28708;52.224;6.924;2024-01-10T14:26:34;6.70;;;3.43;;
43086;SDS011;28708;52.224;6.924;2024-01-10T14:29:00;8.80;;;3.07;;
43086;SDS011;28708;52.224;6.924;2024-01-10T14:31:26;10.93;;;3.30;;
43086;SDS011;28708;52.224;6.924;2024-01-10T14:33:52;9.20;;;2.90;;
43086;SDS011;28708;52.224;6.924;2024-01-10T14:36:18;9.63;;;3.00;;
43086;SDS011;28708;52.224;6.924;2024-01-10T14:38:44;12.07;;;2.77;;
43086;SDS011;28708;52.224;6.924;2024-01-10T14:41:10;10.33;;;3.30;;
43086;SDS011;28708;52.224;6.924;2024-01-10T14:43:36;8.77;;;3.30;;
43086;SDS011;28708;52.224;6.924;2024-01-10T14:46:03;9.77;;;2.93;;
43086;SDS011;28708;52.224;6.924;2024-01-10T14:48:30;7.13;;;3.40;;
43086;SDS011;28708;52.224;6.924;2024-01-10T14:51:00;8.15;;;3.25;;
43086;SDS011;28708;52.224;6.924;2024-01-10T14:53:26;10.77;;;3.90;;
43086;SDS011;28708;52.224;6.924;2024-01-10T14:55:52;9.07;;;3.17;;